Time;durP1;ratioP1;P1;durP2;ratioP2;P2;SDS_P1;SDS_P2;PMS_P1;PMS_P2;Temp;Humidity;BMP_temperature;BMP_pressure;BME280_temperature;BME280_humidity;BME280_pressure;Samples;Min_cycle;Max_cycle;Signal;HPM_P1;HPM_P2
2021/08/31 00:00:07;;;;;;;11.30;7.87;;;14.90;1.00;15.30;100897.00;;;;4873393;29;20490;-76
2021/08/31 00:02:37;;;;;;;8.93;8.03;;;14.70;1.00;15.20;100891.00;;;;4879732;29;20456;-78
2021/08/31 00:05:06;;;;;;;8.27;7.53;;;14.70;1.00;15.30;100867.00;;;;4881326;29;20484;-77
2021/08/31 00:07:34;;;;;;;10.00;9.00;;;14.70;1.00;15.30;100895.00;;;;4881072;29;20464;-78
2021/08/31 00:10:03;;;;;;;8.73;7.83;;;14.70;1.00;15.20;100904.00;;;;4878383;29;20511;-78
2021/08/31 00:12:32;;;;;;;8.83;8.03;;;14.70;1.00;15.30;100891.00;;;;4883080;29;20456;-78
2021/08/31 00:15:00;;;;;;;8.57;7.73;;;14.70;1.00;15.20;100905.00;;;;4881857;29;20464;-78
2021/08/31 00:17:28;;;;;;;9.50;7.53;;;14.60;1.00;15.20;100901.00;;;;4893096;29;20464;-79
2021/08/31 00:19:58;;;;;;;9.33;8.43;;;14.60;1.00;15.20;100899.00;;;;4876800;29;20487;-78
2021/08/31 00:22:26;;;;;;;9.27;8.37;;;14.50;1.00;15.10;100866.00;;;;4880342;29;20456;-78
2021/08/31 00:24:55;;;;;;;9.63;7.23;;;14.50;1.00;15.10;100912.00;;;;4873366;29;20484;-78
2021/08/31 00:27:23;;;;;;;9.10;8.20;;;14.50;1.00;15.10;100920.00;;;;4871797;29;20469;-79
2021/08/31 00:29:51;;;;;;;10.60;9.60;;;14.50;1.00;15.10;100904.00;;;;4880068;29;20571;-78
2021/08/31 00:32:19;;;;;;;10.63;8.23;;;14.50;1.00;15.10;100908.00;;;;4871144;29;20463;-79
2021/08/31 00:34:48;;;;;;;9.80;8.90;;;14.50;1.00;15.10;100917.00;;;;4874230;29;20567;-78
2021/08/31 00:37:17;;;;;;;11.80;8.80;;;14.60;1.00;15.10;100912.00;;;;4874234;29;20460;-78
2021/08/31 00:39:46;;;;;;;10.10;8.60;;;14.60;1.00;15.10;100918.00;;;;4869812;29;20484;-78
2021/08/31 00:42:14;;;;;;;10.53;8.83;;;14.50;1.00;15.10;100908.00;;;;4872098;29;20458;-78
2021/08/31 00:44:43;;;;;;;10.33;8.97;;;14.50;1.00;15.10;100917.00;;;;4870824;29;20879;-77
2021/08/31 00:47:11;;;;;;;9.13;8.33;;;14.50;1.00;15.10;100910.00;;;;4886152;29;20467;-77
2021/08/31 00:49:39;;;;;;;8.43;7.73;;;14.50;1.00;15.00;100918.00;;;;4870243;29;20563;-78
2021/08/31 00:52:09;;;;;;;10.30;8.80;;;14.50;1.00;15.00;100897.00;;;;4871883;29;20470;-77
2021/08/31 00:54:38;;;;;;;13.03;9.70;;;14.40;1.00;15.00;100926.00;;;;4862091;29;20483;-77
2021/08/31 00:57:07;;;;;;;10.43;9.43;;;14.40;1.00;15.00;100924.00;;;;4869330;29;20471;-77
2021/08/31 00:59:36;;;;;;;9.73;8.80;;;14.40;1.00;15.00;100920.00;;;;4869868;29;20613;-77
2021/08/31 01:02:05;;;;;;;10.50;9.07;;;14.40;1.00;14.90;100916.00;;;;4870666;29;20507;-77
2021/08/31 01:04:34;;;;;;;13.10;10.37;;;14.30;1.00;14.90;100916.00;;;;4870320;29;20460;-77
2021/08/31 01:07:03;;;;;;;11.63;9.20;;;14.30;1.00;14.90;100931.00;;;;4871330;29;20503;-77
2021/08/31 01:09:32;;;;;;;12.33;10.20;;;14.30;1.00;14.90;100934.00;;;;4870005;29;20487;-77
2021/08/31 01:12:01;;;;;;;9.63;8.23;;;14.30;1.00;14.90;100921.00;;;;4870142;29;21006;-80
2021/08/31 01:14:31;;;;;;;10.50;9.40;;;14.30;1.00;14.90;100924.00;;;;4872544;29;20458;-77
2021/08/31 01:16:59;;;;;;;11.30;10.20;;;14.30;1.00;14.90;100918.00;;;;4871425;29;20895;-77
2021/08/31 01:19:30;;;;;;;13.80;10.80;;;14.40;1.00;14.90;100933.00;;;;4873020;29;20492;-77
2021/08/31 01:22:02;;;;;;;11.30;10.20;;;14.40;1.00;14.90;100927.00;;;;4872874;29;20454;-78
2021/08/31 01:24:31;;;;;;;11.57;10.40;;;14.30;1.00;14.80;100911.00;;;;4871586;29;20448;-77
2021/08/31 01:27:01;;;;;;;10.47;9.37;;;14.20;1.00;14.80;100936.00;;;;4872924;29;20490;-77
2021/08/31 01:29:32;;;;;;;11.10;10.00;;;14.20;1.00;14.70;100933.00;;;;4878023;29;20543;-78
2021/08/31 01:32:01;;;;;;;10.90;9.77;;;14.10;1.00;14.70;100913.00;;;;4872921;29;20444;-78
2021/08/31 01:34:31;;;;;;;12.33;10.17;;;14.00;1.00;14.70;100936.00;;;;4873657;29;20440;-77
2021/08/31 01:36:59;;;;;;;11.10;10.10;;;14.00;1.00;14.70;100933.00;;;;4877069;29;20910;-78
2021/08/31 01:39:28;;;;;;;10.43;9.43;;;14.00;1.00;14.70;100955.00;;;;4873905;29;20488;-76
2021/08/31 01:41:56;;;;;;;10.60;9.23;;;14.10;1.00;14.80;100943.00;;;;4875557;29;20475;-78
2021/08/31 01:44:26;;;;;;;10.53;9.50;;;14.20;1.00;14.80;100945.00;;;;4878068;29;20483;-78
2021/08/31 01:46:54;;;;;;;10.50;9.40;;;14.20;1.00;14.80;100937.00;;;;4874092;29;20861;-77
2021/08/31 01:49:23;;;;;;;10.70;9.73;;;14.30;1.00;14.80;100949.00;;;;4874262;29;20479;-77
2021/08/31 01:51:51;;;;;;;10.10;9.20;;;14.30;1.00;14.80;100945.00;;;;4874137;29;20463;-77
2021/08/31 01:54:19;;;;;;;11.17;9.40;;;14.20;1.00;14.80;100938.00;;;;4873326;29;20519;-78
2021/08/31 01:56:48;;;;;;;9.20;8.30;;;14.20;1.00;14.60;100926.00;;;;4872739;29;20966;-78
2021/08/31 01:59:16;;;;;;;12.47;9.37;;;14.10;1.00;14.70;100938.00;;;;4873475;29;20461;-78
2021/08/31 02:01:46;;;;;;;12.77;9.80;;;14.10;1.00;14.70;100942.00;;;;4873331;29;20484;-77
2021/08/31 02:04:15;;;;;;;10.27;9.27;;;14.10;1.00;14.70;100933.00;;;;4871659;29;20499;-79
2021/08/31 02:06:43;;;;;;;9.93;9.03;;;14.10;1.00;14.70;100939.00;;;;4872200;29;20484;-78
2021/08/31 02:09:12;;;;;;;10.17;9.17;;;14.20;1.00;14.70;100931.00;;;;4885482;29;20460;-78
2021/08/31 02:11:40;;;;;;;11.30;8.83;;;14.20;1.00;14.70;100929.00;;;;4871247;29;20564;-78
2021/08/31 02:14:08;;;;;;;9.40;8.33;;;14.20;1.00;14.70;100938.00;;;;4876674;29;20463;-78
2021/08/31 02:16:38;;;;;;;9.77;8.80;;;14.30;1.00;14.70;100921.00;;;;4881454;29;20979;-78
2021/08/31 02:19:08;;;;;;;9.90;8.90;;;14.20;1.00;14.70;100921.00;;;;4872109;29;20572;-78
2021/08/31 02:21:36;;;;;;;9.60;8.60;;;14.20;1.00;14.70;100903.00;;;;4876650;29;20476;-78
2021/08/31 02:24:05;;;;;;;9.50;8.60;;;14.20;1.00;14.60;100935.00;;;;4872492;29;20464;-79
2021/08/31 02:26:34;;;;;;;9.70;8.70;;;14.20;1.00;14.60;100923.00;;;;4871277;29;20484;-78
2021/08/31 02:29:02;;;;;;;10.97;9.57;;;14.10;1.00;14.60;100930.00;;;;4876104;29;20471;-78
2021/08/31 02:31:30;;;;;;;10.83;9.43;;;14.10;1.00;14.60;100943.00;;;;4881095;29;20478;-79
2021/08/31 02:33:59;;;;;;;12.33;9.07;;;14.00;1.00;14.50;100932.00;;;;4885281;29;20447;-76
2021/08/31 02:36:29;;;;;;;10.20;9.17;;;14.00;1.00;14.50;100917.00;;;;4865848;29;20472;-78
2021/08/31 02:38:57;;;;;;;12.43;9.90;;;14.00;1.00;14.50;100936.00;;;;4878978;29;20828;-78
2021/08/31 02:41:25;;;;;;;9.47;8.57;;;14.00;1.00;14.50;100932.00;;;;4874629;29;20480;-77
2021/08/31 02:43:53;;;;;;;11.63;9.83;;;14.00;1.00;14.50;100936.00;;;;4872833;29;20472;-78
2021/08/31 02:46:22;;;;;;;9.30;8.40;;;14.00;1.00;14.40;100918.00;;;;4871420;29;20494;-77
2021/08/31 02:48:50;;;;;;;10.80;9.80;;;14.00;1.00;14.50;100939.00;;;;4871119;29;20468;-77
2021/08/31 02:51:19;;;;;;;11.40;10.23;;;14.00;1.00;14.40;100944.00;;;;4874277;29;21123;-78
2021/08/31 02:53:48;;;;;;;9.77;8.77;;;14.00;1.00;14.50;100937.00;;;;4873153;29;20460;-79
2021/08/31 02:56:17;;;;;;;10.93;9.83;;;14.00;1.00;14.40;100910.00;;;;4875261;29;20591;-79
2021/08/31 02:58:45;;;;;;;10.80;9.40;;;13.90;1.00;14.40;100934.00;;;;4874479;29;20467;-76
2021/08/31 03:01:32;;;;;;;10.53;9.47;;;13.90;1.00;14.40;100933.00;;;;4871768;29;20491;-77
2021/08/31 03:04:02;;;;;;;10.90;9.77;;;14.00;1.00;14.50;100937.00;;;;4873839;29;20839;-78
2021/08/31 03:06:32;;;;;;;8.63;7.53;;;14.00;1.00;14.50;100938.00;;;;4876553;29;20488;-76
2021/08/31 03:09:03;;;;;;;9.50;8.57;;;14.10;1.00;14.50;100924.00;;;;4879174;29;20456;-77
2021/08/31 03:11:31;;;;;;;9.53;8.43;;;14.10;1.00;14.40;100941.00;;;;4881790;29;20527;-78
2021/08/31 03:14:00;;;;;;;11.80;9.30;;;14.10;1.00;14.50;100934.00;;;;4876378;29;20458;-76
2021/08/31 03:16:28;;;;;;;11.00;8.97;;;14.10;1.00;14.60;100937.00;;;;4889190;29;20748;-77
2021/08/31 03:18:56;;;;;;;10.17;9.07;;;14.20;1.00;14.60;100920.00;;;;4888076;29;20466;-77
2021/08/31 03:21:26;;;;;;;11.10;9.30;;;14.10;1.00;14.60;100937.00;;;;4889038;29;20492;-76
2021/08/31 03:23:54;;;;;;;11.47;10.27;;;14.20;1.00;14.60;100947.00;;;;4889454;29;20453;-77
2021/08/31 03:26:24;;;;;;;10.10;9.10;;;14.20;1.00;14.70;100948.00;;;;4895642;29;20474;-76
2021/08/31 03:28:52;;;;;;;10.57;9.47;;;14.20;1.00;14.70;100952.00;;;;4888232;29;20460;-76
2021/08/31 03:31:20;;;;;;;11.30;10.10;;;14.20;1.00;14.80;100962.00;;;;4890952;29;20484;-76
2021/08/31 03:33:49;;;;;;;11.60;9.93;;;14.30;1.00;14.80;100969.00;;;;4888552;29;20475;-76
2021/08/31 03:36:17;;;;;;;10.30;9.30;;;14.30;1.00;14.80;100968.00;;;;4880859;29;20456;-75
2021/08/31 03:38:46;;;;;;;9.57;8.57;;;14.40;1.00;14.90;100969.00;;;;4887230;29;20536;-76
2021/08/31 03:41:14;;;;;;;10.57;9.47;;;14.30;1.00;14.90;100959.00;;;;4893832;29;20476;-76
2021/08/31 03:43:44;;;;;;;10.03;9.03;;;14.30;1.00;14.90;100959.00;;;;4895414;29;20484;-76
2021/08/31 03:46:12;;;;;;;12.40;9.30;;;14.40;1.00;14.90;100974.00;;;;4893215;29;20455;-77
2021/08/31 03:48:41;;;;;;;9.47;8.57;;;14.40;1.00;14.90;100916.00;;;;4884553;29;20489;-76
2021/08/31 03:51:09;;;;;;;9.57;8.57;;;14.50;1.00;15.00;100972.00;;;;4885539;29;20559;-76
2021/08/31 03:53:39;;;;;;;9.67;8.77;;;14.60;1.00;15.00;100996.00;;;;4880892;29;20468;-77
2021/08/31 03:56:08;;;;;;;10.93;9.83;;;14.60;1.00;15.10;100992.00;;;;4880294;29;20938;-77
2021/08/31 03:58:36;;;;;;;9.77;8.77;;;14.60;1.00;15.10;100966.00;;;;4876702;29;20830;-77
2021/08/31 04:01:06;;;;;;;8.77;7.87;;;14.70;1.00;15.20;100997.00;;;;4884048;29;20479;-79
2021/08/31 04:03:34;;;;;;;9.33;8.40;;;14.70;1.00;15.20;101001.00;;;;4876494;29;21237;-77
2021/08/31 04:06:03;;;;;;;9.93;8.27;;;14.80;1.00;15.30;100996.00;;;;4881936;29;20467;-77
2021/08/31 04:08:31;;;;;;;10.07;8.30;;;14.90;1.00;15.30;100987.00;;;;4881686;29;20496;-77
2021/08/31 04:10:59;;;;;;;9.00;8.10;;;14.90;1.00;15.30;100992.00;;;;4882298;29;20481;-76
2021/08/31 04:13:28;;;;;;;9.33;8.40;;;14.90;1.00;15.30;101000.00;;;;4869267;29;20468;-78
2021/08/31 04:15:56;;;;;;;10.80;8.23;;;14.90;1.00;15.20;101008.00;;;;4877400;29;20470;-76
2021/08/31 04:18:26;;;;;;;8.90;8.07;;;14.90;1.00;15.40;101012.00;;;;4879662;29;21118;-78
2021/08/31 04:20:54;;;;;;;10.20;8.97;;;15.00;1.00;15.30;101008.00;;;;4874554;29;20500;-76
2021/08/31 04:23:22;;;;;;;8.70;7.80;;;15.00;1.00;15.40;100994.00;;;;4878989;29;20459;-77
2021/08/31 04:25:51;;;;;;;11.43;8.80;;;15.00;1.00;15.40;101010.00;;;;4881030;29;20468;-75
2021/08/31 04:28:19;;;;;;;9.13;8.23;;;15.00;1.00;15.40;101011.00;;;;4875678;29;20494;-78
2021/08/31 04:30:47;;;;;;;8.37;7.57;;;15.00;1.00;15.40;100991.00;;;;4871818;29;20498;-78
2021/08/31 04:33:16;;;;;;;9.10;8.20;;;15.00;1.00;15.40;101020.00;;;;4870389;29;20464;-78
2021/08/31 04:35:46;;;;;;;9.00;8.10;;;14.90;1.00;15.40;101032.00;;;;4870211;29;20471;-78
2021/08/31 04:38:14;;;;;;;11.13;9.40;;;15.00;1.00;15.30;101029.00;;;;4875403;29;20468;-76
2021/08/31 04:40:43;;;;;;;12.60;8.47;;;14.80;1.00;15.30;101034.00;;;;4881821;29;20484;-77
2021/08/31 04:43:11;;;;;;;9.33;8.43;;;14.80;1.00;15.20;101032.00;;;;4879351;29;20471;-76
2021/08/31 04:45:39;;;;;;;9.90;8.90;;;14.80;1.00;15.10;101023.00;;;;4881913;29;20480;-76
2021/08/31 04:48:07;;;;;;;14.43;9.37;;;14.70;1.00;15.10;101016.00;;;;4878459;29;20489;-78
2021/08/31 04:50:36;;;;;;;9.73;8.70;;;14.70;1.00;15.00;101029.00;;;;4875936;29;20468;-78
2021/08/31 04:53:06;;;;;;;10.37;9.13;;;14.60;1.00;15.00;101025.00;;;;4871436;29;20460;-76
2021/08/31 04:55:34;;;;;;;9.87;8.87;;;14.60;1.00;14.90;101033.00;;;;4875812;29;20464;-77
2021/08/31 04:58:02;;;;;;;9.13;8.33;;;14.60;1.00;14.90;101032.00;;;;4867040;29;20460;-74
2021/08/31 05:00:31;;;;;;;11.27;9.77;;;14.60;1.00;14.90;101010.00;;;;4871016;29;20494;-77
2021/08/31 05:02:59;;;;;;;10.23;8.90;;;14.50;1.00;14.90;101025.00;;;;4865333;29;20460;-77
2021/08/31 05:05:28;;;;;;;9.73;8.83;;;14.50;1.00;14.90;101030.00;;;;4869618;29;20456;-77
2021/08/31 05:07:56;;;;;;;10.90;9.73;;;14.50;1.00;14.80;101023.00;;;;4865868;29;20483;-77
2021/08/31 05:10:26;;;;;;;12.40;10.10;;;14.40;1.00;14.90;101026.00;;;;4874036;29;20475;-78
2021/08/31 05:12:54;;;;;;;12.23;10.10;;;14.50;1.00;14.90;101035.00;;;;4881415;29;20470;-77
2021/08/31 05:15:23;;;;;;;9.53;8.50;;;14.50;1.00;14.90;101033.00;;;;4866583;29;20468;-77
2021/08/31 05:17:51;;;;;;;10.13;9.10;;;14.50;1.00;14.90;101032.00;;;;4864037;29;20503;-75
2021/08/31 05:20:20;;;;;;;9.43;8.43;;;14.50;1.00;14.90;101055.00;;;;4879928;29;20510;-77
2021/08/31 05:22:50;;;;;;;9.73;8.80;;;14.50;1.00;14.90;101042.00;;;;4872428;29;21436;-77
2021/08/31 05:25:19;;;;;;;8.90;8.00;;;14.50;1.00;14.90;101059.00;;;;4871082;29;20468;-78
2021/08/31 05:27:49;;;;;;;10.80;8.80;;;14.50;1.00;14.90;101048.00;;;;4867366;29;20487;-77
2021/08/31 05:30:18;;;;;;;10.93;9.83;;;14.50;1.00;14.90;101051.00;;;;4867506;29;20498;-77
2021/08/31 05:32:46;;;;;;;14.27;8.63;;;14.50;1.00;14.90;101060.00;;;;4875261;29;20472;-77
2021/08/31 05:35:14;;;;;;;11.30;9.77;;;14.50;1.00;14.90;101056.00;;;;4869482;29;20468;-77
2021/08/31 05:37:43;;;;;;;11.47;8.43;;;14.60;1.00;15.00;101059.00;;;;4869582;29;20471;-76
2021/08/31 05:40:12;;;;;;;10.40;9.30;;;14.50;1.00;15.00;101068.00;;;;4870019;29;20519;-77
2021/08/31 05:42:40;;;;;;;11.03;9.83;;;14.50;1.00;15.00;101062.00;;;;4872592;29;20468;-79
2021/08/31 05:45:12;;;;;;;10.03;8.83;;;14.50;1.00;14.90;101061.00;;;;4871919;29;21235;-77
2021/08/31 05:47:40;;;;;;;12.00;9.23;;;14.50;1.00;15.00;101068.00;;;;4870953;29;21224;-78
2021/08/31 05:50:10;;;;;;;11.70;9.80;;;14.50;1.00;15.00;101078.00;;;;4868716;29;20572;-77
2021/08/31 05:52:38;;;;;;;11.33;9.60;;;14.50;1.00;15.00;101090.00;;;;4867428;29;20475;-77
2021/08/31 05:55:08;;;;;;;14.20;9.90;;;14.50;1.00;14.90;101086.00;;;;4865021;29;20569;-78
2021/08/31 05:57:37;;;;;;;10.90;9.60;;;14.50;1.00;14.90;101077.00;;;;4870120;29;20468;-77
2021/08/31 06:00:08;;;;;;;10.60;8.73;;;14.50;1.00;14.90;101056.00;;;;4869454;29;20994;-78
2021/08/31 06:02:42;;;;;;;10.53;9.43;;;14.50;1.00;15.10;101075.00;;;;4870508;29;20879;-77
2021/08/31 06:05:11;;;;;;;10.47;8.70;;;14.60;1.00;15.10;101088.00;;;;4870091;29;20472;-78
2021/08/31 06:07:40;;;;;;;9.93;9.00;;;14.60;1.00;15.30;101074.00;;;;4870435;29;20471;-78
2021/08/31 06:10:11;;;;;;;11.90;9.80;;;14.70;1.00;15.60;101068.00;;;;4867887;29;20495;-77
2021/08/31 06:12:39;;;;;;;10.47;9.20;;;14.90;1.00;15.80;101095.00;;;;4865243;29;21168;-76
2021/08/31 06:15:09;;;;;;;10.50;8.63;;;15.20;1.00;15.90;101080.00;;;;4883537;29;20474;-76
2021/08/31 06:17:38;;;;;;;9.80;8.57;;;15.30;1.00;16.10;101086.00;;;;4891051;29;20554;-76
2021/08/31 06:20:10;;;;;;;12.33;8.67;;;15.50;1.00;16.20;101088.00;;;;4886078;29;20491;-77
2021/08/31 06:22:39;;;;;;;10.33;8.57;;;15.70;1.00;16.30;101085.00;;;;4874790;29;20467;-75
2021/08/31 06:25:09;;;;;;;10.20;9.07;;;15.70;1.00;16.40;101079.00;;;;4870174;29;20539;-76
2021/08/31 06:27:37;;;;;;;8.93;8.03;;;15.90;1.00;16.50;101087.00;;;;4876543;29;20468;-77
2021/08/31 06:30:07;;;;;;;11.37;9.07;;;15.90;1.00;16.50;101091.00;;;;4879254;29;20491;-77
2021/08/31 06:32:35;;;;;;;8.83;7.93;;;16.00;1.00;16.60;101100.00;;;;4872205;29;20467;-77
2021/08/31 06:35:04;;;;;;;9.47;7.57;;;16.10;1.00;16.70;101100.00;;;;4881805;29;20468;-77
2021/08/31 06:37:33;;;;;;;13.43;7.70;;;16.20;1.00;16.80;101101.00;;;;4879286;29;20490;-77
2021/08/31 06:40:02;;;;;;;10.90;8.07;;;16.20;1.00;16.90;101101.00;;;;4885032;29;20491;-76
2021/08/31 06:42:30;;;;;;;9.63;8.00;;;16.30;1.00;16.90;101095.00;;;;4879057;29;20476;-77
2021/08/31 06:44:58;;;;;;;9.63;8.40;;;16.40;1.00;17.00;101109.00;;;;4875506;29;20472;-76
2021/08/31 06:47:27;;;;;;;10.50;7.80;;;16.50;1.00;17.10;101096.00;;;;4874841;29;20468;-77
2021/08/31 06:49:59;;;;;;;10.10;8.17;;;16.60;1.00;17.20;101104.00;;;;4877654;29;20471;-76
2021/08/31 06:52:27;;;;;;;8.23;7.40;;;16.70;1.00;17.00;101109.00;;;;4886351;29;20471;-76
2021/08/31 06:54:57;;;;;;;10.17;7.53;;;16.60;1.00;16.90;101114.00;;;;4887285;29;21101;-75
2021/08/31 06:57:25;;;;;;;10.07;7.67;;;16.60;1.00;17.10;101116.00;;;;4885704;29;20464;-75
2021/08/31 06:59:54;;;;;;;10.30;7.87;;;16.80;1.00;17.20;101112.00;;;;4885757;29;20484;-77
2021/08/31 07:02:22;;;;;;;9.87;7.53;;;16.90;1.00;17.20;101116.00;;;;4876668;29;20850;-77
2021/08/31 07:04:52;;;;;;;9.07;7.67;;;16.90;1.00;17.20;101105.00;;;;4864167;29;20544;-77
2021/08/31 07:07:20;;;;;;;9.00;7.80;;;16.80;1.00;17.10;101117.00;;;;4884705;29;20460;-76
2021/08/31 07:09:49;;;;;;;9.60;7.60;;;16.80;1.00;17.00;101116.00;;;;4884637;29;20483;-77
2021/08/31 07:12:19;;;;;;;8.43;7.53;;;16.70;1.00;17.00;101136.00;;;;4884726;29;20464;-78
2021/08/31 07:14:47;;;;;;;7.53;6.83;;;16.60;1.00;17.10;101133.00;;;;4885266;29;20456;-78
2021/08/31 07:17:16;;;;;;;7.70;6.70;;;16.70;1.00;17.20;101140.00;;;;4866796;29;20464;-77
2021/08/31 07:19:44;;;;;;;8.23;7.27;;;16.80;1.00;17.50;101131.00;;;;4870120;29;20530;-76
2021/08/31 07:22:13;;;;;;;7.53;6.67;;;17.10;1.00;17.50;101130.00;;;;4871688;29;20502;-79
2021/08/31 07:24:41;;;;;;;9.67;7.17;;;17.20;1.00;17.60;101132.00;;;;4869827;29;20473;-77
2021/08/31 07:27:09;;;;;;;7.13;6.43;;;17.40;1.00;17.90;101132.00;;;;4869052;29;20588;-77
2021/08/31 07:29:39;;;;;;;9.23;7.17;;;17.60;1.00;18.20;101128.00;;;;4867172;29;20495;-77
2021/08/31 07:32:08;;;;;;;9.80;6.80;;;17.90;1.00;18.20;101132.00;;;;4871740;29;20458;-76
2021/08/31 07:34:38;;;;;;;6.43;5.83;;;18.10;1.00;18.60;101131.00;;;;4870759;29;20483;-77
2021/08/31 07:37:07;;;;;;;9.33;6.70;;;18.30;1.00;18.70;101126.00;;;;4868413;29;20468;-78
2021/08/31 07:39:36;;;;;;;6.67;6.07;;;18.40;1.00;18.80;101132.00;;;;4867895;29;20873;-76
2021/08/31 07:42:06;;;;;;;8.37;6.60;;;18.40;1.00;18.80;101135.00;;;;4878348;29;20456;-76
2021/08/31 07:44:34;;;;;;;7.33;6.50;;;18.40;1.00;18.90;101121.00;;;;4870036;29;20471;-77
2021/08/31 07:47:05;;;;;;;6.50;5.90;;;18.50;1.00;19.00;101145.00;;;;4867403;29;20495;-76
2021/08/31 07:49:33;;;;;;;7.30;5.57;;;18.50;1.00;18.90;101144.00;;;;4868018;29;20488;-78
2021/08/31 07:52:02;;;;;;;8.63;6.50;;;18.50;1.00;18.80;101146.00;;;;4868475;29;20469;-78
2021/08/31 07:54:30;;;;;;;6.53;5.80;;;18.50;1.00;18.90;101137.00;;;;4872024;29;20460;-78
2021/08/31 07:56:59;;;;;;;11.07;5.73;;;18.60;1.00;19.10;101149.00;;;;4872010;29;20871;-78
2021/08/31 07:59:27;;;;;;;6.63;6.00;;;18.80;1.00;19.50;101137.00;;;;4868593;29;20954;-78
2021/08/31 08:01:55;;;;;;;8.63;6.30;;;19.10;1.00;19.80;101141.00;;;;4872229;29;20467;-79
2021/08/31 08:04:26;;;;;;;7.13;5.57;;;19.30;1.00;20.00;101141.00;;;;4870942;29;20953;-79
2021/08/31 08:06:54;;;;;;;6.00;5.40;;;19.60;1.00;20.10;101148.00;;;;4875638;29;20495;-78
2021/08/31 08:09:22;;;;;;;7.70;6.40;;;19.70;1.00;20.20;101144.00;;;;4872191;29;20490;-76
2021/08/31 08:11:51;;;;;;;6.90;6.23;;;19.80;1.00;20.10;101148.00;;;;4874685;29;20476;-78
2021/08/31 08:14:19;;;;;;;8.33;7.00;;;19.70;1.00;20.10;101154.00;;;;4871981;29;20464;-76
2021/08/31 08:16:47;;;;;;;6.17;5.53;;;19.60;1.00;20.10;101150.00;;;;4871413;29;20464;-79
2021/08/31 08:19:16;;;;;;;6.40;5.80;;;19.60;1.00;20.00;101151.00;;;;4869469;29;20463;-76
2021/08/31 08:21:46;;;;;;;6.77;6.03;;;19.60;1.00;20.00;101146.00;;;;4870096;29;20472;-78
2021/08/31 08:24:14;;;;;;;6.53;5.23;;;19.60;1.00;20.10;101116.00;;;;4873841;29;20483;-77
2021/08/31 08:26:42;;;;;;;8.50;5.97;;;19.70;1.00;20.30;101164.00;;;;4869753;29;20887;-78
2021/08/31 08:29:11;;;;;;;6.40;5.73;;;19.90;1.00;20.30;101171.00;;;;4871404;29;20559;-78
2021/08/31 08:31:44;;;;;;;6.53;5.67;;;20.00;1.00;20.40;101159.00;;;;4871392;29;20555;-77
2021/08/31 08:34:12;;;;;;;7.40;6.60;;;20.00;1.00;20.50;101158.00;;;;4869020;29;20460;-78
2021/08/31 08:36:41;;;;;;;5.97;5.43;;;20.20;1.00;20.70;101160.00;;;;4872351;29;20476;-78
2021/08/31 08:39:10;;;;;;;7.00;5.60;;;20.30;1.00;20.90;101157.00;;;;4876134;29;20469;-76
2021/08/31 08:41:39;;;;;;;6.23;5.63;;;20.50;1.00;20.90;101138.00;;;;4894382;29;20457;-77
2021/08/31 08:44:07;;;;;;;5.90;5.30;;;20.50;1.00;21.10;101164.00;;;;4874845;29;20499;-78
2021/08/31 08:46:36;;;;;;;6.97;6.13;;;20.70;1.00;21.20;101151.00;;;;4874329;29;20461;-78
2021/08/31 08:49:05;;;;;;;6.00;5.40;;;20.90;1.00;21.30;101156.00;;;;4876220;29;20468;-77
2021/08/31 08:51:33;;;;;;;6.27;5.03;;;20.90;1.00;21.40;101158.00;;;;4877560;29;20465;-78
2021/08/31 08:54:01;;;;;;;7.27;5.90;;;20.90;1.00;21.60;101157.00;;;;4879408;29;20452;-77
2021/08/31 08:56:31;;;;;;;6.20;5.37;;;21.10;1.00;21.60;101167.00;;;;4876872;29;20460;-79
2021/08/31 08:58:59;;;;;;;7.97;6.43;;;21.00;1.00;21.50;101168.00;;;;4877554;29;20471;-78
2021/08/31 09:01:42;;;;;;;7.33;5.50;;;21.00;1.00;21.70;101179.00;;;;4878040;29;20563;-79
2021/08/31 09:04:13;;;;;;;7.30;5.70;;;21.20;1.00;21.60;101167.00;;;;4880881;29;20471;-76
2021/08/31 09:06:42;;;;;;;6.13;5.43;;;21.10;1.00;21.50;101185.00;;;;4885710;29;20460;-78
2021/08/31 09:09:11;;;;;;;7.97;5.30;;;20.90;1.00;21.30;101171.00;;;;4886395;29;20467;-77
2021/08/31 09:11:46;;;;;;;8.93;5.40;;;20.90;1.00;21.30;101181.00;;;;4886158;29;20535;-77
2021/08/31 09:14:27;;;;;;;7.93;5.83;;;20.60;1.00;21.10;101165.00;;;;4880433;29;20490;-77
2021/08/31 09:16:57;;;;;;;6.00;5.30;;;20.50;1.00;21.10;101183.00;;;;4888886;29;20459;-78
2021/08/31 09:19:32;;;;;;;6.87;5.57;;;20.50;1.00;21.10;101188.00;;;;4882675;29;20501;-77
2021/08/31 09:22:16;;;;;;;6.97;5.43;;;20.60;1.00;21.20;101196.00;;;;4880651;29;20481;-77
2021/08/31 09:24:59;;;;;;;6.47;5.77;;;20.80;1.00;21.20;101188.00;;;;4873045;29;20516;-77
2021/08/31 09:27:37;;;;;;;6.40;5.40;;;20.70;1.00;21.20;101183.00;;;;4867499;29;20861;-77
2021/08/31 09:30:17;;;;;;;10.27;5.70;;;20.70;1.00;21.40;101189.00;;;;4863386;29;20512;-77
2021/08/31 09:33:03;;;;;;;5.70;5.13;;;20.80;1.00;21.50;101189.00;;;;4868446;29;20486;-76
2021/08/31 09:35:32;;;;;;;6.20;5.20;;;20.90;1.00;21.60;101183.00;;;;4860042;29;20465;-76
2021/08/31 09:38:02;;;;;;;6.97;5.30;;;21.10;1.00;21.70;101171.00;;;;4866297;29;20468;-76
2021/08/31 09:40:31;;;;;;;6.33;5.73;;;21.10;1.00;21.70;101187.00;;;;4866661;29;20489;-78
2021/08/31 09:43:04;;;;;;;11.13;6.80;;;21.00;1.00;21.80;101187.00;;;;4871607;29;20480;-76
2021/08/31 09:45:36;;;;;;;6.60;5.50;;;21.20;1.00;21.60;101203.00;;;;4876144;29;20482;-78
2021/08/31 09:48:07;;;;;;;7.20;6.27;;;21.10;1.00;21.80;101183.00;;;;4879164;29;20502;-75
2021/08/31 09:50:39;;;;;;;5.07;4.57;;;21.30;1.00;21.90;101186.00;;;;4881818;29;20494;-76
2021/08/31 09:53:14;;;;;;;8.80;5.00;;;21.50;1.00;22.00;101182.00;;;;4881896;29;20472;-77
2021/08/31 09:55:44;;;;;;;10.33;5.43;;;21.70;1.00;21.80;101178.00;;;;4881938;29;20467;-77
2021/08/31 09:58:18;;;;;;;6.97;4.80;;;21.60;1.00;22.00;101190.00;;;;4891948;29;20491;-78
2021/08/31 10:00:48;;;;;;;5.67;4.93;;;21.80;1.00;21.70;101210.00;;;;4886072;29;20503;-76
2021/08/31 10:03:18;;;;;;;7.60;5.50;;;21.50;1.00;21.60;101194.00;;;;4887350;29;20474;-77
2021/08/31 10:05:49;;;;;;;5.63;5.10;;;21.30;1.00;21.60;101199.00;;;;4882483;29;20512;-78
2021/08/31 10:08:18;;;;;;;6.57;5.63;;;21.20;1.00;21.70;101194.00;;;;4877871;29;20536;-76
2021/08/31 10:10:49;;;;;;;6.93;5.27;;;21.30;1.00;22.10;101178.00;;;;4877634;29;20476;-77
2021/08/31 10:13:21;;;;;;;9.07;5.70;;;21.60;1.00;22.60;101190.00;;;;4872974;29;20456;-82
2021/08/31 10:15:52;;;;;;;8.77;6.13;;;22.00;1.00;22.90;101182.00;;;;4872438;29;20503;-78
2021/08/31 10:18:23;;;;;;;6.20;5.10;;;22.30;1.00;23.10;101193.00;;;;4880607;29;20487;-77
2021/08/31 10:20:56;;;;;;;5.77;5.27;;;22.30;1.00;23.00;101196.00;;;;4886675;29;20558;-78
2021/08/31 10:23:27;;;;;;;7.13;4.80;;;22.30;1.00;23.00;101204.00;;;;4885012;29;20488;-75
2021/08/31 10:26:26;;;;;;;6.30;5.23;;;22.20;1.00;22.80;101177.00;;;;4879582;29;20472;-77
2021/08/31 10:29:28;;;;;;;5.10;4.53;;;22.00;1.00;22.40;101189.00;;;;4877477;29;20591;-76
2021/08/31 10:32:00;;;;;;;5.50;5.00;;;21.80;1.00;22.20;101200.00;;;;4869576;29;20490;-77
2021/08/31 10:34:44;;;;;;;5.80;5.20;;;21.60;1.00;22.30;101195.00;;;;4873891;29;20551;-79
2021/08/31 10:37:16;;;;;;;6.33;5.60;;;21.90;1.00;22.50;101183.00;;;;4871263;29;20482;-79
2021/08/31 10:39:48;;;;;;;5.90;5.37;;;22.30;1.00;22.80;101156.00;;;;4872767;29;20522;-77
2021/08/31 10:42:41;;;;;;;5.93;5.07;;;22.50;1.00;22.80;101193.00;;;;4872154;29;20467;-77
2021/08/31 10:45:33;;;;;;;7.00;5.60;;;22.30;1.00;22.70;101191.00;;;;4879793;29;20540;-78
2021/08/31 10:48:37;;;;;;;8.50;4.97;;;22.20;1.00;22.60;101186.00;;;;4872620;29;20475;-77
2021/08/31 10:51:09;;;;;;;8.53;5.87;;;22.00;1.00;22.60;101198.00;;;;4872907;29;20502;-77
2021/08/31 10:53:39;;;;;;;6.00;5.33;;;22.00;1.00;22.60;101203.00;;;;4877995;29;20480;-77
2021/08/31 10:56:27;;;;;;;7.63;5.70;;;22.10;1.00;22.90;101204.00;;;;4878180;29;20476;-78
2021/08/31 10:58:57;;;;;;;6.10;5.50;;;22.40;1.00;23.20;101194.00;;;;4876291;29;20475;-77
2021/08/31 11:01:28;;;;;;;7.73;5.63;;;22.60;1.00;23.70;101186.00;;;;4878054;29;20499;-78